sensor_id;sensor_type;location;lat;lon;timestamp;pressure;altitude;pressure_sealevel;temperature;humidity
19590;BME280;12231;42.782;23.388;2022-12-24T00:01:07;95530.31;;;0.32;100.00
19590;BME280;12231;42.782;23.388;2022-12-24T00:03:34;95531.34;;;0.22;100.00
19590;BME280;12231;42.782;23.388;2022-12-24T00:06:04;95537.03;;;0.34;100.00
19590;BME280;12231;42.782;23.388;2022-12-24T00:08:30;95538.84;;;0.28;100.00
19590;BME280;12231;42.782;23.388;2022-12-24T00:10:55;95537.00;;;0.36;100.00
19590;BME280;12231;42.782;23.388;2022-12-24T00:13:20;95536.91;;;0.39;100.00
19590;BME280;12231;42.782;23.388;2022-12-24T00:15:46;95536.81;;;0.43;100.00
19590;BME280;12231;42.782;23.388;2022-12-24T00:18:11;95537.50;;;0.50;100.00
19590;BME280;12231;42.782;23.388;2022-12-24T00:20:37;95537.53;;;0.48;100.00
19590;BME280;12231;42.782;23.388;2022-12-24T00:23:02;95539.13;;;0.52;100.00
19590;BME280;12231;42.782;23.388;2022-12-24T00:25:27;95528.06;;;0.56;100.00
19590;BME280;12231;42.782;23.388;2022-12-24T00:27:53;95533.03;;;0.61;100.00
19590;BME280;12231;42.782;23.388;2022-12-24T00:30:18;95540.69;;;0.58;100.00
19590;BME280;12231;42.782;23.388;2022-12-24T00:32:44;95543.25;;;0.58;100.00
19590;BME280;12231;42.782;23.388;2022-12-24T00:35:09;95539.88;;;0.57;100.00
19590;BME280;12231;42.782;23.388;2022-12-24T00:37:34;95543.19;;;0.59;100.00
19590;BME280;12231;42.782;23.388;2022-12-24T00:40:00;95533.88;;;0.61;100.00
19590;BME280;12231;42.782;23.388;2022-12-24T00:42:25;95542.16;;;0.68;100.00
19590;BME280;12231;42.782;23.388;2022-12-24T00:44:51;95541.25;;;0.70;100.00
19590;BME280;12231;42.782;23.388;2022-12-24T00:47:16;95532.84;;;0.70;100.00
19590;BME280;12231;42.782;23.388;2022-12-24T00:49:41;95533.66;;;0.70;100.00
19590;BME280;12231;42.782;23.388;2022-12-24T00:52:07;95532.03;;;0.68;100.00
19590;BME280;12231;42.782;23.388;2022-12-24T00:54:32;95533.53;;;0.76;100.00
19590;BME280;12231;42.782;23.388;2022-12-24T00:56:57;95535.25;;;0.74;100.00
19590;BME280;12231;42.782;23.388;2022-12-24T00:59:23;95538.78;;;0.67;100.00
19590;BME280;12231;42.782;23.388;2022-12-24T01:01:48;95536.00;;;0.79;100.00
19590;BME280;12231;42.782;23.388;2022-12-24T01:04:14;95532.59;;;0.79;100.00
19590;BME280;12231;42.782;23.388;2022-12-24T01:06:58;95537.78;;;0.74;100.00
19590;BME280;12231;42.782;23.388;2022-12-24T01:09:23;95541.00;;;0.82;100.00
19590;BME280;12231;42.782;23.388;2022-12-24T01:11:48;95535.75;;;0.88;100.00
19590;BME280;12231;42.782;23.388;2022-12-24T01:14:14;95540.78;;;0.90;100.00
19590;BME280;12231;42.782;23.388;2022-12-24T01:16:39;95542.53;;;0.89;100.00
19590;BME280;12231;42.782;23.388;2022-12-24T01:19:05;95546.09;;;0.81;100.00
19590;BME280;12231;42.782;23.388;2022-12-24T01:21:30;95539.44;;;0.75;100.00
19590;BME280;12231;42.782;23.388;2022-12-24T01:23:55;95533.56;;;0.73;100.00
19590;BME280;12231;42.782;23.388;2022-12-24T01:26:21;95526.13;;;0.67;100.00
19590;BME280;12231;42.782;23.388;2022-12-24T01:28:46;95517.00;;;0.59;100.00
19590;BME280;12231;42.782;23.388;2022-12-24T01:31:14;95525.50;;;0.58;100.00
19590;BME280;12231;42.782;23.388;2022-12-24T01:33:41;95521.34;;;0.55;100.00
19590;BME280;12231;42.782;23.388;2022-12-24T01:36:07;95522.34;;;0.48;100.00
19590;BME280;12231;42.782;23.388;2022-12-24T01:38:32;95530.78;;;0.47;100.00
19590;BME280;12231;42.782;23.388;2022-12-24T01:40:58;95532.50;;;0.47;100.00
19590;BME280;12231;42.782;23.388;2022-12-24T01:43:42;95532.63;;;0.42;100.00
19590;BME280;12231;42.782;23.388;2022-12-24T01:46:27;95534.78;;;0.21;100.00
19590;BME280;12231;42.782;23.388;2022-12-24T01:49:03;95539.75;;;0.24;100.00
19590;BME280;12231;42.782;23.388;2022-12-24T01:51:41;95535.50;;;0.26;100.00
19590;BME280;12231;42.782;23.388;2022-12-24T01:56:43;95530.69;;;0.14;100.00
19590;BME280;12231;42.782;23.388;2022-12-24T01:59:12;95540.31;;;-0.02;100.00
19590;BME280;12231;42.782;23.388;2022-12-24T02:01:39;95537.28;;;-0.21;100.00
19590;BME280;12231;42.782;23.388;2022-12-24T02:04:39;95537.84;;;-0.05;100.00
19590;BME280;12231;42.782;23.388;2022-12-24T02:07:07;95533.41;;;0.05;100.00
19590;BME280;12231;42.782;23.388;2022-12-24T02:09:33;95529.97;;;0.07;100.00
19590;BME280;12231;42.782;23.388;2022-12-24T02:12:00;95527.50;;;0.04;100.00
19590;BME280;12231;42.782;23.388;2022-12-24T02:14:27;95536.88;;;0.00;100.00
19590;BME280;12231;42.782;23.388;2022-12-24T02:17:58;95529.13;;;0.07;100.00
19590;BME280;12231;42.782;23.388;2022-12-24T02:31:32;95543.06;;;0.27;100.00
19590;BME280;12231;42.782;23.388;2022-12-24T02:36:41;95539.41;;;0.40;100.00
19590;BME280;12231;42.782;23.388;2022-12-24T02:39:12;95531.09;;;0.34;100.00
19590;BME280;12231;42.782;23.388;2022-12-24T02:41:42;95533.72;;;0.31;100.00
19590;BME280;12231;42.782;23.388;2022-12-24T02:44:29;95532.97;;;0.26;100.00
19590;BME280;12231;42.782;23.388;2022-12-24T02:46:58;95531.47;;;0.17;100.00
19590;BME280;12231;42.782;23.388;2022-12-24T02:49:24;95523.13;;;0.12;100.00
19590;BME280;12231;42.782;23.388;2022-12-24T02:51:50;95522.47;;;0.03;100.00
19590;BME280;12231;42.782;23.388;2022-12-24T02:54:15;95523.38;;;0.00;100.00
19590;BME280;12231;42.782;23.388;2022-12-24T02:56:57;95526.91;;;-0.07;100.00
19590;BME280;12231;42.782;23.388;2022-12-24T03:05:33;95528.59;;;-0.08;100.00
19590;BME280;12231;42.782;23.388;2022-12-24T03:08:41;95524.28;;;-0.03;100.00
19590;BME280;12231;42.782;23.388;2022-12-24T03:11:12;95519.13;;;0.00;100.00
19590;BME280;12231;42.782;23.388;2022-12-24T03:13:40;95508.97;;;0.02;100.00
19590;BME280;12231;42.782;23.388;2022-12-24T03:16:12;95504.22;;;-0.12;100.00
19590;BME280;12231;42.782;23.388;2022-12-24T03:18:42;95505.03;;;-0.11;100.00
19590;BME280;12231;42.782;23.388;2022-12-24T03:21:32;95501.69;;;-0.12;100.00
19590;BME280;12231;42.782;23.388;2022-12-24T03:23:59;95509.31;;;-0.13;100.00
19590;BME280;12231;42.782;23.388;2022-12-24T03:26:28;95501.72;;;-0.13;100.00
19590;BME280;12231;42.782;23.388;2022-12-24T03:28:54;95507.69;;;-0.17;100.00
19590;BME280;12231;42.782;23.388;2022-12-24T03:31:20;95501.97;;;-0.27;100.00
19590;BME280;12231;42.782;23.388;2022-12-24T03:33:45;95498.09;;;-0.43;100.00
19590;BME280;12231;42.782;23.388;2022-12-24T03:36:11;95498.97;;;-0.47;100.00
19590;BME280;12231;42.782;23.388;2022-12-24T03:38:37;95505.13;;;-0.60;100.00
19590;BME280;12231;42.782;23.388;2022-12-24T03:41:03;95511.16;;;-0.65;100.00
19590;BME280;12231;42.782;23.388;2022-12-24T03:43:28;95521.25;;;-0.64;100.00
19590;BME280;12231;42.782;23.388;2022-12-24T03:45:54;95510.59;;;-0.81;100.00
19590;BME280;12231;42.782;23.388;2022-12-24T03:48:19;95514.09;;;-0.89;100.00
19590;BME280;12231;42.782;23.388;2022-12-24T03:50:45;95521.19;;;-1.08;100.00
19590;BME280;12231;42.782;23.388;2022-12-24T03:53:10;95523.78;;;-1.12;100.00
19590;BME280;12231;42.782;23.388;2022-12-24T03:55:37;95520.38;;;-1.11;100.00
19590;BME280;12231;42.782;23.388;2022-12-24T03:58:03;95526.28;;;-1.11;100.00
19590;BME280;12231;42.782;23.388;2022-12-24T04:00:28;95522.19;;;-1.18;100.00
19590;BME280;12231;42.782;23.388;2022-12-24T04:02:54;95524.13;;;-1.33;100.00
19590;BME280;12231;42.782;23.388;2022-12-24T04:05:19;95533.19;;;-1.22;100.00
19590;BME280;12231;42.782;23.388;2022-12-24T04:07:46;95539.81;;;-1.15;100.00
19590;BME280;12231;42.782;23.388;2022-12-24T04:10:12;95538.06;;;-1.10;100.00
19590;BME280;12231;42.782;23.388;2022-12-24T04:12:38;95542.22;;;-1.06;100.00
19590;BME280;12231;42.782;23.388;2022-12-24T04:15:04;95544.59;;;-0.98;100.00
19590;BME280;12231;42.782;23.388;2022-12-24T04:17:30;95546.25;;;-0.96;100.00
19590;BME280;12231;42.782;23.388;2022-12-24T04:19:55;95544.56;;;-0.95;100.00
19590;BME280;12231;42.782;23.388;2022-12-24T04:22:21;95546.25;;;-0.94;100.00
19590;BME280;12231;42.782;23.388;2022-12-24T04:24:46;95547.91;;;-0.93;100.00
19590;BME280;12231;42.782;23.388;2022-12-24T04:27:13;95548.75;;;-0.93;100.00
19590;BME280;12231;42.782;23.388;2022-12-24T04:29:38;95561.28;;;-0.87;100.00
19590;BME280;12231;42.782;23.388;2022-12-24T04:32:04;95552.81;;;-0.86;100.00
19590;BME280;12231;42.782;23.388;2022-12-24T04:34:29;95559.63;;;-0.88;100.00
19590;BME280;12231;42.782;23.388;2022-12-24T04:36:55;95562.91;;;-0.84;100.00
19590;BME280;12231;42.782;23.388;2022-12-24T04:39:20;95565.34;;;-0.78;100.00
19590;BME280;12231;42.782;23.388;2022-12-24T04:41:45;95568.66;;;-0.76;100.00
19590;BME280;12231;42.782;23.388;2022-12-24T04:44:11;95567.88;;;-0.78;100.00
19590;BME280;12231;42.782;23.388;2022-12-24T04:46:36;95570.28;;;-0.71;100.00
19590;BME280;12231;42.782;23.388;2022-12-24T04:49:02;95578.75;;;-0.72;100.00
19590;BME280;12231;42.782;23.388;2022-12-24T04:51:28;95568.00;;;-0.86;100.00
19590;BME280;12231;42.782;23.388;2022-12-24T04:53:54;95563.63;;;-0.78;100.00
19590;BME280;12231;42.782;23.388;2022-12-24T04:56:23;95567.88;;;-0.78;100.00
19590;BME280;12231;42.782;23.388;2022-12-24T04:58:49;95568.78;;;-0.82;100.00
19590;BME280;12231;42.782;23.388;2022-12-24T05:01:17;95572.97;;;-0.81;100.00
19590;BME280;12231;42.782;23.388;2022-12-24T05:03:43;95566.19;;;-0.79;100.00
19590;BME280;12231;42.782;23.388;2022-12-24T05:06:15;95564.47;;;-0.76;100.00
19590;BME280;12231;42.782;23.388;2022-12-24T05:08:41;95557.66;;;-0.72;100.00
19590;BME280;12231;42.782;23.388;2022-12-24T05:11:07;95566.09;;;-0.72;100.00
19590;BME280;12231;42.782;23.388;2022-12-24T05:13:33;95561.06;;;-0.73;100.00
19590;BME280;12231;42.782;23.388;2022-12-24T05:15:59;95547.56;;;-0.74;100.00
19590;BME280;12231;42.782;23.388;2022-12-24T05:18:24;95536.88;;;-0.91;100.00
19590;BME280;12231;42.782;23.388;2022-12-24T05:20:50;95527.06;;;-1.07;100.00
19590;BME280;12231;42.782;23.388;2022-12-24T05:23:21;95530.66;;;-1.20;100.00
19590;BME280;12231;42.782;23.388;2022-12-24T05:26:15;95530.72;;;-1.25;100.00
19590;BME280;12231;42.782;23.388;2022-12-24T05:28:55;95538.22;;;-1.19;100.00
19590;BME280;12231;42.782;23.388;2022-12-24T05:31:22;95539.91;;;-1.19;100.00
19590;BME280;12231;42.782;23.388;2022-12-24T05:33:48;95539.88;;;-1.18;100.00
19590;BME280;12231;42.782;23.388;2022-12-24T05:36:14;95536.41;;;-1.11;100.00
19590;BME280;12231;42.782;23.388;2022-12-24T05:38:40;95545.72;;;-1.14;100.00
19590;BME280;12231;42.782;23.388;2022-12-24T05:41:06;95542.25;;;-1.10;100.00
19590;BME280;12231;42.782;23.388;2022-12-24T05:43:31;95537.06;;;-1.00;100.00
19590;BME280;12231;42.782;23.388;2022-12-24T05:46:01;95541.03;;;-0.87;100.00
19590;BME280;12231;42.782;23.388;2022-12-24T05:48:27;95532.53;;;-0.83;100.00
19590;BME280;12231;42.782;23.388;2022-12-24T05:50:53;95535.88;;;-0.81;100.00
19590;BME280;12231;42.782;23.388;2022-12-24T05:53:19;95533.22;;;-0.73;100.00
19590;BME280;12231;42.782;23.388;2022-12-24T05:55:45;95531.19;;;-1.02;100.00
19590;BME280;12231;42.782;23.388;2022-12-24T05:58:10;95539.59;;;-1.00;100.00
19590;BME280;12231;42.782;23.388;2022-12-24T06:00:36;95547.09;;;-0.95;100.00
19590;BME280;12231;42.782;23.388;2022-12-24T06:03:02;95555.28;;;-0.83;100.00
19590;BME280;12231;42.782;23.388;2022-12-24T06:05:28;95548.69;;;-0.90;100.00
19590;BME280;12231;42.782;23.388;2022-12-24T06:07:53;95553.56;;;-0.79;100.00
19590;BME280;12231;42.782;23.388;2022-12-24T06:10:19;95550.94;;;-0.73;100.00
19590;BME280;12231;42.782;23.388;2022-12-24T06:12:44;95541.03;;;-0.85;100.00
19590;BME280;12231;42.782;23.388;2022-12-24T06:15:10;95550.22;;;-0.80;100.00
19590;BME280;12231;42.782;23.388;2022-12-24T06:17:35;95542.38;;;-0.66;100.00
19590;BME280;12231;42.782;23.388;2022-12-24T06:20:03;95543.91;;;-0.58;100.00
19590;BME280;12231;42.782;23.388;2022-12-24T06:22:28;95548.00;;;-0.51;100.00
19590;BME280;12231;42.782;23.388;2022-12-24T06:24:54;95547.94;;;-0.48;100.00
19590;BME280;12231;42.782;23.388;2022-12-24T06:27:19;95555.41;;;-0.42;100.00
19590;BME280;12231;42.782;23.388;2022-12-24T06:29:44;95562.78;;;-0.30;100.00
19590;BME280;12231;42.782;23.388;2022-12-24T06:32:10;95555.44;;;0.42;100.00
19590;BME280;12231;42.782;23.388;2022-12-24T06:34:36;95544.91;;;4.06;100.00
19590;BME280;12231;42.782;23.388;2022-12-24T06:37:01;95552.81;;;3.99;100.00
19590;BME280;12231;42.782;23.388;2022-12-24T06:39:26;95556.56;;;3.40;100.00
19590;BME280;12231;42.782;23.388;2022-12-24T06:41:52;95562.88;;;3.02;100.00
19590;BME280;12231;42.782;23.388;2022-12-24T06:44:17;95569.84;;;2.40;100.00
19590;BME280;12231;42.782;23.388;2022-12-24T06:46:43;95579.22;;;1.77;100.00
19590;BME280;12231;42.782;23.388;2022-12-24T06:49:08;95575.97;;;1.72;100.00
19590;BME280;12231;42.782;23.388;2022-12-24T06:51:34;95575.28;;;1.66;100.00
19590;BME280;12231;42.782;23.388;2022-12-24T06:53:59;95582.44;;;1.50;100.00
19590;BME280;12231;42.782;23.388;2022-12-24T06:56:25;95589.59;;;1.36;100.00
19590;BME280;12231;42.782;23.388;2022-12-24T06:58:51;95588.38;;;1.17;100.00
19590;BME280;12231;42.782;23.388;2022-12-24T07:01:17;95584.91;;;1.19;100.00
19590;BME280;12231;42.782;23.388;2022-12-24T07:03:44;95588.34;;;1.18;100.00
19590;BME280;12231;42.782;23.388;2022-12-24T07:06:16;95588.59;;;1.06;100.00
19590;BME280;12231;42.782;23.388;2022-12-24T07:08:42;95582.59;;;0.74;100.00
19590;BME280;12231;42.782;23.388;2022-12-24T07:11:07;95585.75;;;0.83;100.00
19590;BME280;12231;42.782;23.388;2022-12-24T07:13:33;95580.38;;;1.32;100.00
19590;BME280;12231;42.782;23.388;2022-12-24T07:16:00;95589.19;;;1.17;100.00
19590;BME280;12231;42.782;23.388;2022-12-24T07:18:26;95586.94;;;1.05;100.00
19590;BME280;12231;42.782;23.388;2022-12-24T07:20:52;95591.13;;;1.06;100.00
19590;BME280;12231;42.782;23.388;2022-12-24T07:23:17;95588.91;;;0.93;100.00
19590;BME280;12231;42.782;23.388;2022-12-24T07:25:42;95584.28;;;0.73;100.00
19590;BME280;12231;42.782;23.388;2022-12-24T07:28:08;95588.84;;;0.59;100.00
19590;BME280;12231;42.782;23.388;2022-12-24T07:30:33;95590.75;;;0.50;100.00
19590;BME280;12231;42.782;23.388;2022-12-24T07:32:59;95582.06;;;0.60;100.00
19590;BME280;12231;42.782;23.388;2022-12-24T07:35:25;95591.03;;;0.74;100.00
19590;BME280;12231;42.782;23.388;2022-12-24T07:37:50;95594.16;;;1.22;100.00
19590;BME280;12231;42.782;23.388;2022-12-24T07:40:15;95598.31;;;1.24;100.00
19590;BME280;12231;42.782;23.388;2022-12-24T07:42:41;95592.78;;;1.76;100.00
19590;BME280;12231;42.782;23.388;2022-12-24T07:45:07;95600.81;;;1.93;100.00
19590;BME280;12231;42.782;23.388;2022-12-24T07:47:33;95597.38;;;1.94;100.00
19590;BME280;12231;42.782;23.388;2022-12-24T07:49:59;95600.22;;;1.84;100.00
19590;BME280;12231;42.782;23.388;2022-12-24T07:52:24;95597.38;;;1.94;100.00
19590;BME280;12231;42.782;23.388;2022-12-24T07:54:50;95591.78;;;3.00;100.00
19590;BME280;12231;42.782;23.388;2022-12-24T07:57:15;95600.66;;;2.87;100.00
19590;BME280;12231;42.782;23.388;2022-12-24T07:59:41;95616.22;;;2.77;100.00
19590;BME280;12231;42.782;23.388;2022-12-24T08:02:09;95614.19;;;2.89;100.00
19590;BME280;12231;42.782;23.388;2022-12-24T08:04:35;95619.78;;;3.00;100.00
19590;BME280;12231;42.782;23.388;2022-12-24T08:07:04;95620.81;;;2.94;100.00
19590;BME280;12231;42.782;23.388;2022-12-24T08:09:34;95623.56;;;3.14;100.00
19590;BME280;12231;42.782;23.388;2022-12-24T08:12:01;95615.72;;;3.74;100.00
19590;BME280;12231;42.782;23.388;2022-12-24T08:14:28;95621.50;;;3.79;100.00
19590;BME280;12231;42.782;23.388;2022-12-24T08:16:54;95637.28;;;3.10;100.00
19590;BME280;12231;42.782;23.388;2022-12-24T08:19:19;95634.28;;;2.98;100.00
19590;BME280;12231;42.782;23.388;2022-12-24T08:21:45;95629.31;;;2.93;100.00
19590;BME280;12231;42.782;23.388;2022-12-24T08:24:10;95623.91;;;3.04;100.00
19590;BME280;12231;42.782;23.388;2022-12-24T08:26:36;95620.47;;;2.77;100.00
19590;BME280;12231;42.782;23.388;2022-12-24T08:29:02;95618.16;;;2.97;100.00
19590;BME280;12231;42.782;23.388;2022-12-24T08:31:28;95609.03;;;3.18;100.00
19590;BME280;12231;42.782;23.388;2022-12-24T08:33:54;95603.56;;;3.30;100.00
19590;BME280;12231;42.782;23.388;2022-12-24T08:36:19;95602.75;;;2.74;100.00
19590;BME280;12231;42.782;23.388;2022-12-24T08:38:44;95592.09;;;3.17;100.00
19590;BME280;12231;42.782;23.388;2022-12-24T08:41:10;95594.88;;;3.35;100.00
19590;BME280;12231;42.782;23.388;2022-12-24T08:43:35;95591.31;;;3.67;100.00
19590;BME280;12231;42.782;23.388;2022-12-24T08:46:05;95593.66;;;3.73;100.00
19590;BME280;12231;42.782;23.388;2022-12-24T08:48:32;95606.41;;;3.97;100.00
19590;BME280;12231;42.782;23.388;2022-12-24T08:50:57;95599.13;;;4.35;100.00
19590;BME280;12231;42.782;23.388;2022-12-24T08:53:23;95596.28;;;4.44;100.00
19590;BME280;12231;42.782;23.388;2022-12-24T08:55:49;95604.50;;;4.73;100.00
19590;BME280;12231;42.782;23.388;2022-12-24T08:58:14;95609.97;;;5.09;100.00
19590;BME280;12231;42.782;23.388;2022-12-24T09:00:39;95610.28;;;6.06;100.00
19590;BME280;12231;42.782;23.388;2022-12-24T09:03:05;95610.22;;;6.08;100.00
19590;BME280;12231;42.782;23.388;2022-12-24T09:05:30;95616.88;;;6.12;100.00
19590;BME280;12231;42.782;23.388;2022-12-24T09:07:56;95613.03;;;6.22;100.00
19590;BME280;12231;42.782;23.388;2022-12-24T09:10:22;95608.09;;;6.37;100.00
19590;BME280;12231;42.782;23.388;2022-12-24T09:12:47;95609.22;;;6.69;100.00
19590;BME280;12231;42.782;23.388;2022-12-24T09:15:13;95599.34;;;6.98;100.00
19590;BME280;12231;42.782;23.388;2022-12-24T09:17:38;95612.00;;;7.20;100.00
19590;BME280;12231;42.782;23.388;2022-12-24T09:20:05;95610.50;;;7.52;100.00
19590;BME280;12231;42.782;23.388;2022-12-24T09:22:33;95604.09;;;7.77;100.00
19590;BME280;12231;42.782;23.388;2022-12-24T09:24:59;95600.44;;;8.00;100.00
19590;BME280;12231;42.782;23.388;2022-12-24T09:27:24;95600.38;;;7.49;100.00
19590;BME280;12231;42.782;23.388;2022-12-24T09:29:50;95609.84;;;7.82;100.00
19590;BME280;12231;42.782;23.388;2022-12-24T09:32:15;95609.63;;;8.04;100.00
19590;BME280;12231;42.782;23.388;2022-12-24T09:34:40;95601.31;;;8.16;100.00
19590;BME280;12231;42.782;23.388;2022-12-24T09:37:06;95605.25;;;8.06;100.00
19590;BME280;12231;42.782;23.388;2022-12-24T09:39:32;95606.53;;;7.97;100.00
19590;BME280;12231;42.782;23.388;2022-12-24T09:45:17;95584.50;;;7.93;100.00
19590;BME280;12231;42.782;23.388;2022-12-24T09:47:58;95583.38;;;7.82;100.00
19590;BME280;12231;42.782;23.388;2022-12-24T09:50:50;95575.59;;;7.83;100.00
19590;BME280;12231;42.782;23.388;2022-12-24T09:56:15;95580.88;;;7.97;100.00
19590;BME280;12231;42.782;23.388;2022-12-24T09:58:46;95587.22;;;8.07;99.75
19590;BME280;12231;42.782;23.388;2022-12-24T10:01:15;95578.16;;;8.17;99.80
19590;BME280;12231;42.782;23.388;2022-12-24T10:03:41;95580.56;;;8.20;100.00
19590;BME280;12231;42.782;23.388;2022-12-24T10:06:23;95585.97;;;8.49;100.00
19590;BME280;12231;42.782;23.388;2022-12-24T10:14:52;95572.84;;;8.86;98.55
19590;BME280;12231;42.782;23.388;2022-12-24T10:17:37;95566.28;;;8.80;98.50
19590;BME280;12231;42.782;23.388;2022-12-24T10:23:39;95553.03;;;7.90;99.69
19590;BME280;12231;42.782;23.388;2022-12-24T10:28:59;95564.16;;;8.40;99.14
19590;BME280;12231;42.782;23.388;2022-12-24T10:31:29;95551.34;;;8.23;98.38
19590;BME280;12231;42.782;23.388;2022-12-24T10:34:00;95552.78;;;8.11;99.37
19590;BME280;12231;42.782;23.388;2022-12-24T10:36:28;95547.72;;;8.27;98.66
19590;BME280;12231;42.782;23.388;2022-12-24T10:38:54;95541.22;;;8.37;98.74
19590;BME280;12231;42.782;23.388;2022-12-24T10:41:20;95537.81;;;8.37;97.94
19590;BME280;12231;42.782;23.388;2022-12-24T10:43:46;95534.09;;;8.42;98.97
19590;BME280;12231;42.782;23.388;2022-12-24T10:46:22;95517.19;;;10.05;100.00
19590;BME280;12231;42.782;23.388;2022-12-24T10:48:55;95516.44;;;10.32;100.00
19590;BME280;12231;42.782;23.388;2022-12-24T10:54:15;95541.09;;;9.63;97.31
19590;BME280;12231;42.782;23.388;2022-12-24T10:56:43;95547.81;;;8.74;99.29
19590;BME280;12231;42.782;23.388;2022-12-24T10:59:23;95544.91;;;8.31;100.00
19590;BME280;12231;42.782;23.388;2022-12-24T11:01:50;95540.97;;;8.57;100.00
19590;BME280;12231;42.782;23.388;2022-12-24T11:04:20;95545.06;;;8.46;100.00
19590;BME280;12231;42.782;23.388;2022-12-24T11:07:03;95544.22;;;8.45;100.00
19590;BME280;12231;42.782;23.388;2022-12-24T11:09:35;95554.75;;;7.55;100.00
19590;BME280;12231;42.782;23.388;2022-12-24T11:12:03;95545.63;;;7.50;100.00
19590;BME280;12231;42.782;23.388;2022-12-24T11:14:33;95532.16;;;7.46;100.00
19590;BME280;12231;42.782;23.388;2022-12-24T11:17:00;95529.50;;;7.82;100.00
19590;BME280;12231;42.782;23.388;2022-12-24T11:19:31;95526.97;;;8.14;100.00
19590;BME280;12231;42.782;23.388;2022-12-24T11:22:01;95533.75;;;8.32;100.00
19590;BME280;12231;42.782;23.388;2022-12-24T11:24:30;95539.16;;;8.44;100.00
19590;BME280;12231;42.782;23.388;2022-12-24T11:33:08;95512.13;;;11.28;100.00
19590;BME280;12231;42.782;23.388;2022-12-24T11:35:33;95522.88;;;13.12;100.00
19590;BME280;12231;42.782;23.388;2022-12-24T11:40:47;95523.72;;;15.28;84.88
19590;BME280;12231;42.782;23.388;2022-12-24T11:43:18;95505.13;;;14.79;76.77
19590;BME280;12231;42.782;23.388;2022-12-24T11:45:50;95511.84;;;13.33;77.54
19590;BME280;12231;42.782;23.388;2022-12-24T11:48:33;95517.53;;;11.50;85.05
19590;BME280;12231;42.782;23.388;2022-12-24T11:51:01;95499.84;;;11.32;85.31
19590;BME280;12231;42.782;23.388;2022-12-24T11:56:07;95506.75;;;11.04;87.70
19590;BME280;12231;42.782;23.388;2022-12-24T11:58:47;95506.47;;;11.09;87.33
19590;BME280;12231;42.782;23.388;2022-12-24T12:01:38;95505.03;;;10.91;88.90
19590;BME280;12231;42.782;23.388;2022-12-24T12:04:21;95497.31;;;10.91;88.55
19590;BME280;12231;42.782;23.388;2022-12-24T12:06:54;95493.59;;;10.68;87.86
19590;BME280;12231;42.782;23.388;2022-12-24T12:09:24;95503.06;;;10.40;90.31
19590;BME280;12231;42.782;23.388;2022-12-24T12:12:12;95498.25;;;9.92;92.67
19590;BME280;12231;42.782;23.388;2022-12-24T12:14:44;95512.69;;;9.64;93.07
19590;BME280;12231;42.782;23.388;2022-12-24T12:20:10;95510.34;;;10.19;98.04
19590;BME280;12231;42.782;23.388;2022-12-24T12:23:00;95514.38;;;9.65;93.21
19590;BME280;12231;42.782;23.388;2022-12-24T12:25:48;95517.63;;;9.53;93.07
19590;BME280;12231;42.782;23.388;2022-12-24T12:31:09;95507.13;;;9.86;90.90
19590;BME280;12231;42.782;23.388;2022-12-24T12:33:43;95515.75;;;9.71;91.24
19590;BME280;12231;42.782;23.388;2022-12-24T12:36:13;95510.06;;;9.80;93.04
19590;BME280;12231;42.782;23.388;2022-12-24T12:38:40;95502.53;;;9.77;90.61
19590;BME280;12231;42.782;23.388;2022-12-24T12:57:44;95520.50;;;9.33;93.42
19590;BME280;12231;42.782;23.388;2022-12-24T13:00:14;95527.75;;;9.27;93.88
19590;BME280;12231;42.782;23.388;2022-12-24T13:22:14;95546.72;;;9.40;93.60
19590;BME280;12231;42.782;23.388;2022-12-24T13:24:46;95537.63;;;9.03;94.90
19590;BME280;12231;42.782;23.388;2022-12-24T13:27:23;95540.13;;;8.89;95.84
19590;BME280;12231;42.782;23.388;2022-12-24T13:30:00;95543.59;;;8.73;97.17
19590;BME280;12231;42.782;23.388;2022-12-24T13:34:54;95544.91;;;8.64;97.90
19590;BME280;12231;42.782;23.388;2022-12-24T13:37:21;95538.31;;;8.59;98.34
19590;BME280;12231;42.782;23.388;2022-12-24T13:50:42;95572.41;;;8.29;100.00
19590;BME280;12231;42.782;23.388;2022-12-24T13:53:38;95569.38;;;8.21;100.00
19590;BME280;12231;42.782;23.388;2022-12-24T13:56:20;95570.53;;;8.16;100.00
19590;BME280;12231;42.782;23.388;2022-12-24T13:58:49;95570.00;;;8.09;100.00
19590;BME280;12231;42.782;23.388;2022-12-24T14:01:21;95567.59;;;8.06;100.00
19590;BME280;12231;42.782;23.388;2022-12-24T14:03:58;95561.75;;;8.20;100.00
19590;BME280;12231;42.782;23.388;2022-12-24T14:06:36;95563.72;;;8.15;100.00
19590;BME280;12231;42.782;23.388;2022-12-24T14:09:15;95568.59;;;7.87;100.00
19590;BME280;12231;42.782;23.388;2022-12-24T14:14:30;95569.84;;;7.61;100.00
19590;BME280;12231;42.782;23.388;2022-12-24T14:16:57;95573.56;;;7.56;100.00
19590;BME280;12231;42.782;23.388;2022-12-24T14:19:27;95578.16;;;7.49;100.00
19590;BME280;12231;42.782;23.388;2022-12-24T14:22:13;95578.16;;;7.49;100.00
19590;BME280;12231;42.782;23.388;2022-12-24T14:24:47;95583.97;;;7.53;100.00
19590;BME280;12231;42.782;23.388;2022-12-24T14:29:49;95587.94;;;7.58;100.00
19590;BME280;12231;42.782;23.388;2022-12-24T14:32:15;95590.81;;;7.52;100.00
19590;BME280;12231;42.782;23.388;2022-12-24T14:34:41;95589.22;;;7.50;100.00
19590;BME280;12231;42.782;23.388;2022-12-24T14:37:09;95587.47;;;7.50;100.00
19590;BME280;12231;42.782;23.388;2022-12-24T14:39:41;95588.94;;;7.56;100.00
19590;BME280;12231;42.782;23.388;2022-12-24T14:47:58;95589.97;;;7.52;100.00
19590;BME280;12231;42.782;23.388;2022-12-24T14:51:17;95598.13;;;7.43;100.00
19590;BME280;12231;42.782;23.388;2022-12-24T14:56:18;95604.34;;;7.37;100.00
19590;BME280;12231;42.782;23.388;2022-12-24T14:58:45;95605.19;;;7.38;100.00
19590;BME280;12231;42.782;23.388;2022-12-24T15:03:42;95607.69;;;7.39;100.00